sensor_id;sensor_type;location;lat;lon;timestamp;temperature;humidity
66576;SHT31;53428;47.686;16.584;2023-05-14T00:02:41;11.43;99.99
66576;SHT31;53428;47.686;16.584;2023-05-14T00:07:41;11.43;99.99
66576;SHT31;53428;47.686;16.584;2023-05-14T00:12:40;11.39;99.99
66576;SHT31;53428;47.686;16.584;2023-05-14T00:17:40;11.37;99.99
66576;SHT31;53428;47.686;16.584;2023-05-14T00:22:40;11.31;99.99
66576;SHT31;53428;47.686;16.584;2023-05-14T00:27:40;11.26;99.99
66576;SHT31;53428;47.686;16.584;2023-05-14T00:32:39;11.29;99.99
66576;SHT31;53428;47.686;16.584;2023-05-14T00:37:39;11.26;99.99
66576;SHT31;53428;47.686;16.584;2023-05-14T00:42:39;11.10;99.99
66576;SHT31;53428;47.686;16.584;2023-05-14T00:47:39;10.98;99.99
66576;SHT31;53428;47.686;16.584;2023-05-14T00:52:39;10.91;99.99
66576;SHT31;53428;47.686;16.584;2023-05-14T00:57:38;10.88;99.99
66576;SHT31;53428;47.686;16.584;2023-05-14T01:02:38;10.86;99.99
66576;SHT31;53428;47.686;16.584;2023-05-14T01:13:15;10.62;99.99
66576;SHT31;53428;47.686;16.584;2023-05-14T01:18:19;10.68;99.99
66576;SHT31;53428;47.686;16.584;2023-05-14T01:23:19;10.64;99.99
66576;SHT31;53428;47.686;16.584;2023-05-14T01:28:26;10.62;99.99
66576;SHT31;53428;47.686;16.584;2023-05-14T01:33:28;10.55;99.99
66576;SHT31;53428;47.686;16.584;2023-05-14T01:38:29;10.47;99.99
66576;SHT31;53428;47.686;16.584;2023-05-14T01:43:32;10.40;99.99
66576;SHT31;53428;47.686;16.584;2023-05-14T01:48:32;10.27;99.99
66576;SHT31;53428;47.686;16.584;2023-05-14T01:53:31;10.17;99.99
66576;SHT31;53428;47.686;16.584;2023-05-14T01:58:33;10.07;99.99
66576;SHT31;53428;47.686;16.584;2023-05-14T02:03:32;10.09;99.99
66576;SHT31;53428;47.686;16.584;2023-05-14T02:08:31;10.18;99.99
66576;SHT31;53428;47.686;16.584;2023-05-14T02:13:31;10.20;99.99
66576;SHT31;53428;47.686;16.584;2023-05-14T02:18:30;10.29;99.99
66576;SHT31;53428;47.686;16.584;2023-05-14T02:23:30;10.30;99.99
66576;SHT31;53428;47.686;16.584;2023-05-14T02:28:29;10.38;99.99
66576;SHT31;53428;47.686;16.584;2023-05-14T02:33:28;10.38;99.99
66576;SHT31;53428;47.686;16.584;2023-05-14T02:38:28;10.43;99.99
66576;SHT31;53428;47.686;16.584;2023-05-14T02:43:27;10.43;99.99
66576;SHT31;53428;47.686;16.584;2023-05-14T02:48:27;10.40;99.99
66576;SHT31;53428;47.686;16.584;2023-05-14T02:53:26;10.34;99.99
66576;SHT31;53428;47.686;16.584;2023-05-14T02:58:25;10.40;99.99
66576;SHT31;53428;47.686;16.584;2023-05-14T03:03:24;10.41;99.99
66576;SHT31;53428;47.686;16.584;2023-05-14T03:08:23;10.37;99.99
66576;SHT31;53428;47.686;16.584;2023-05-14T03:13:23;10.30;99.99
66576;SHT31;53428;47.686;16.584;2023-05-14T03:18:22;10.25;99.99
66576;SHT31;53428;47.686;16.584;2023-05-14T03:23:21;10.29;99.99
66576;SHT31;53428;47.686;16.584;2023-05-14T03:28:21;10.31;99.99
66576;SHT31;53428;47.686;16.584;2023-05-14T03:33:20;10.33;99.99
66576;SHT31;53428;47.686;16.584;2023-05-14T03:38:20;10.29;99.99
66576;SHT31;53428;47.686;16.584;2023-05-14T03:43:20;10.30;99.99
66576;SHT31;53428;47.686;16.584;2023-05-14T03:48:19;10.38;99.99
66576;SHT31;53428;47.686;16.584;2023-05-14T03:53:19;10.24;99.99
66576;SHT31;53428;47.686;16.584;2023-05-14T03:58:18;10.10;99.99
66576;SHT31;53428;47.686;16.584;2023-05-14T04:03:17;10.07;99.99
66576;SHT31;53428;47.686;16.584;2023-05-14T04:08:17;10.20;99.99
66576;SHT31;53428;47.686;16.584;2023-05-14T04:13:16;10.10;99.99
66576;SHT31;53428;47.686;16.584;2023-05-14T04:18:15;10.21;99.99
66576;SHT31;53428;47.686;16.584;2023-05-14T04:23:15;10.24;99.99
66576;SHT31;53428;47.686;16.584;2023-05-14T04:28:14;10.27;99.99
66576;SHT31;53428;47.686;16.584;2023-05-14T04:33:14;10.33;99.99
66576;SHT31;53428;47.686;16.584;2023-05-14T04:38:13;10.31;99.99
66576;SHT31;53428;47.686;16.584;2023-05-14T04:43:13;10.37;99.99
66576;SHT31;53428;47.686;16.584;2023-05-14T04:48:12;10.43;99.99
66576;SHT31;53428;47.686;16.584;2023-05-14T04:53:12;10.43;99.99
66576;SHT31;53428;47.686;16.584;2023-05-14T04:58:11;10.37;99.99
66576;SHT31;53428;47.686;16.584;2023-05-14T05:03:10;10.45;99.99
66576;SHT31;53428;47.686;16.584;2023-05-14T05:08:10;10.40;99.99
66576;SHT31;53428;47.686;16.584;2023-05-14T05:13:09;10.54;99.99
66576;SHT31;53428;47.686;16.584;2023-05-14T05:18:09;10.40;99.99
66576;SHT31;53428;47.686;16.584;2023-05-14T05:23:08;10.38;99.99
66576;SHT31;53428;47.686;16.584;2023-05-14T05:28:08;10.18;99.99
66576;SHT31;53428;47.686;16.584;2023-05-14T05:33:07;10.14;99.99
66576;SHT31;53428;47.686;16.584;2023-05-14T05:38:06;10.25;99.99
66576;SHT31;53428;47.686;16.584;2023-05-14T05:43:06;10.02;99.99
66576;SHT31;53428;47.686;16.584;2023-05-14T05:48:05;10.03;99.99
66576;SHT31;53428;47.686;16.584;2023-05-14T05:53:04;10.14;99.99
66576;SHT31;53428;47.686;16.584;2023-05-14T05:58:04;10.12;99.99
66576;SHT31;53428;47.686;16.584;2023-05-14T06:03:03;10.06;99.99
66576;SHT31;53428;47.686;16.584;2023-05-14T06:08:02;9.93;99.99
66576;SHT31;53428;47.686;16.584;2023-05-14T06:13:02;10.07;99.99
66576;SHT31;53428;47.686;16.584;2023-05-14T06:18:01;10.14;99.99
66576;SHT31;53428;47.686;16.584;2023-05-14T06:23:01;10.18;99.99
66576;SHT31;53428;47.686;16.584;2023-05-14T06:28:00;10.25;99.99
66576;SHT31;53428;47.686;16.584;2023-05-14T06:32:59;10.24;99.99
66576;SHT31;53428;47.686;16.584;2023-05-14T06:37:59;10.12;99.99
66576;SHT31;53428;47.686;16.584;2023-05-14T06:42:58;10.02;99.99
66576;SHT31;53428;47.686;16.584;2023-05-14T06:47:57;10.07;99.99
66576;SHT31;53428;47.686;16.584;2023-05-14T06:52:57;10.07;99.99
66576;SHT31;53428;47.686;16.584;2023-05-14T06:57:56;9.99;99.99
66576;SHT31;53428;47.686;16.584;2023-05-14T07:02:56;9.72;99.99
66576;SHT31;53428;47.686;16.584;2023-05-14T07:07:55;9.83;99.99
66576;SHT31;53428;47.686;16.584;2023-05-14T07:12:54;9.83;99.99
66576;SHT31;53428;47.686;16.584;2023-05-14T07:17:54;9.75;99.99
66576;SHT31;53428;47.686;16.584;2023-05-14T07:22:53;9.79;99.99
66576;SHT31;53428;47.686;16.584;2023-05-14T07:27:53;9.86;99.99
66576;SHT31;53428;47.686;16.584;2023-05-14T07:32:52;9.76;99.99
66576;SHT31;53428;47.686;16.584;2023-05-14T07:37:51;9.78;99.99
66576;SHT31;53428;47.686;16.584;2023-05-14T07:42:51;9.90;99.99
66576;SHT31;53428;47.686;16.584;2023-05-14T07:47:50;9.83;99.99
66576;SHT31;53428;47.686;16.584;2023-05-14T07:52:49;9.95;99.99
66576;SHT31;53428;47.686;16.584;2023-05-14T07:57:49;10.09;99.99
66576;SHT31;53428;47.686;16.584;2023-05-14T08:02:48;9.93;99.99
66576;SHT31;53428;47.686;16.584;2023-05-14T08:07:48;9.97;99.99
66576;SHT31;53428;47.686;16.584;2023-05-14T08:12:47;10.02;99.99
66576;SHT31;53428;47.686;16.584;2023-05-14T08:17:47;10.10;99.99
66576;SHT31;53428;47.686;16.584;2023-05-14T08:22:46;10.00;99.99
66576;SHT31;53428;47.686;16.584;2023-05-14T08:27:45;10.07;99.99
66576;SHT31;53428;47.686;16.584;2023-05-14T08:32:45;10.03;99.99
66576;SHT31;53428;47.686;16.584;2023-05-14T08:37:45;10.10;99.99
66576;SHT31;53428;47.686;16.584;2023-05-14T08:42:44;10.04;99.99
66576;SHT31;53428;47.686;16.584;2023-05-14T08:47:49;10.06;99.99
66576;SHT31;53428;47.686;16.584;2023-05-14T08:52:49;10.02;99.99
66576;SHT31;53428;47.686;16.584;2023-05-14T08:57:49;10.16;99.99
66576;SHT31;53428;47.686;16.584;2023-05-14T09:02:49;10.14;99.99
66576;SHT31;53428;47.686;16.584;2023-05-14T09:07:49;10.21;99.99
66576;SHT31;53428;47.686;16.584;2023-05-14T09:12:49;10.13;99.99
66576;SHT31;53428;47.686;16.584;2023-05-14T09:17:48;10.16;99.99
66576;SHT31;53428;47.686;16.584;2023-05-14T09:22:52;10.25;99.99
66576;SHT31;53428;47.686;16.584;2023-05-14T09:27:51;10.27;99.99
66576;SHT31;53428;47.686;16.584;2023-05-14T09:32:53;10.31;99.99
66576;SHT31;53428;47.686;16.584;2023-05-14T09:37:53;10.38;99.99
66576;SHT31;53428;47.686;16.584;2023-05-14T09:42:53;10.36;99.99
66576;SHT31;53428;47.686;16.584;2023-05-14T09:47:52;10.50;99.99
66576;SHT31;53428;47.686;16.584;2023-05-14T09:52:54;10.37;99.99
66576;SHT31;53428;47.686;16.584;2023-05-14T09:57:53;10.51;99.99
66576;SHT31;53428;47.686;16.584;2023-05-14T10:02:54;10.64;99.99
66576;SHT31;53428;47.686;16.584;2023-05-14T10:07:56;10.83;99.99
66576;SHT31;53428;47.686;16.584;2023-05-14T10:13:02;10.67;99.99
66576;SHT31;53428;47.686;16.584;2023-05-14T10:18:09;10.72;99.99
66576;SHT31;53428;47.686;16.584;2023-05-14T10:23:09;10.81;99.99
66576;SHT31;53428;47.686;16.584;2023-05-14T10:28:08;10.67;99.99
66576;SHT31;53428;47.686;16.584;2023-05-14T10:33:13;10.65;99.99
66576;SHT31;53428;47.686;16.584;2023-05-14T10:38:14;10.62;99.99
66576;SHT31;53428;47.686;16.584;2023-05-14T10:43:15;10.81;99.99
66576;SHT31;53428;47.686;16.584;2023-05-14T10:48:15;10.98;99.99
66576;SHT31;53428;47.686;16.584;2023-05-14T10:53:15;10.81;99.99
66576;SHT31;53428;47.686;16.584;2023-05-14T10:58:14;10.60;99.99
66576;SHT31;53428;47.686;16.584;2023-05-14T11:03:14;10.60;99.99
66576;SHT31;53428;47.686;16.584;2023-05-14T11:08:14;10.55;99.99
66576;SHT31;53428;47.686;16.584;2023-05-14T11:13:14;10.73;99.99
66576;SHT31;53428;47.686;16.584;2023-05-14T11:18:28;10.75;99.99
66576;SHT31;53428;47.686;16.584;2023-05-14T11:23:28;10.92;99.99
66576;SHT31;53428;47.686;16.584;2023-05-14T11:28:27;10.86;99.99
66576;SHT31;53428;47.686;16.584;2023-05-14T11:33:28;11.05;99.99
66576;SHT31;53428;47.686;16.584;2023-05-14T11:38:27;10.98;99.99
66576;SHT31;53428;47.686;16.584;2023-05-14T11:43:27;11.02;99.99
66576;SHT31;53428;47.686;16.584;2023-05-14T11:48:27;11.03;99.99
66576;SHT31;53428;47.686;16.584;2023-05-14T11:53:29;10.89;99.99
66576;SHT31;53428;47.686;16.584;2023-05-14T11:58:32;10.79;99.99
66576;SHT31;53428;47.686;16.584;2023-05-14T12:03:32;10.93;99.99
66576;SHT31;53428;47.686;16.584;2023-05-14T12:08:31;10.95;99.99
66576;SHT31;53428;47.686;16.584;2023-05-14T12:13:31;10.88;99.99
66576;SHT31;53428;47.686;16.584;2023-05-14T12:18:31;10.92;99.99
66576;SHT31;53428;47.686;16.584;2023-05-14T12:23:32;10.96;99.99
66576;SHT31;53428;47.686;16.584;2023-05-14T12:28:31;10.89;99.99
66576;SHT31;53428;47.686;16.584;2023-05-14T12:33:31;10.89;99.99
66576;SHT31;53428;47.686;16.584;2023-05-14T12:38:30;10.92;99.99
66576;SHT31;53428;47.686;16.584;2023-05-14T12:43:30;10.98;99.99
66576;SHT31;53428;47.686;16.584;2023-05-14T12:48:30;11.00;99.99
66576;SHT31;53428;47.686;16.584;2023-05-14T12:53:29;10.98;99.99
66576;SHT31;53428;47.686;16.584;2023-05-14T12:58:28;11.00;99.99
66576;SHT31;53428;47.686;16.584;2023-05-14T13:03:28;11.18;99.99
66576;SHT31;53428;47.686;16.584;2023-05-14T13:08:27;11.23;99.99
66576;SHT31;53428;47.686;16.584;2023-05-14T13:13:26;11.13;99.99
66576;SHT31;53428;47.686;16.584;2023-05-14T13:18:26;11.16;99.99
66576;SHT31;53428;47.686;16.584;2023-05-14T13:23:25;11.09;99.99
66576;SHT31;53428;47.686;16.584;2023-05-14T13:28:24;11.09;99.99
66576;SHT31;53428;47.686;16.584;2023-05-14T13:33:24;10.96;99.99
66576;SHT31;53428;47.686;16.584;2023-05-14T13:38:24;11.02;99.99
66576;SHT31;53428;47.686;16.584;2023-05-14T13:43:23;11.00;99.99
66576;SHT31;53428;47.686;16.584;2023-05-14T13:48:24;10.92;99.99
66576;SHT31;53428;47.686;16.584;2023-05-14T13:53:24;10.92;99.99
66576;SHT31;53428;47.686;16.584;2023-05-14T13:58:24;10.89;99.99
66576;SHT31;53428;47.686;16.584;2023-05-14T14:03:24;10.86;99.99
66576;SHT31;53428;47.686;16.584;2023-05-14T14:08:23;10.89;99.99
66576;SHT31;53428;47.686;16.584;2023-05-14T14:13:22;10.92;99.99
66576;SHT31;53428;47.686;16.584;2023-05-14T14:18:22;11.00;99.99
66576;SHT31;53428;47.686;16.584;2023-05-14T14:23:21;10.99;99.99
66576;SHT31;53428;47.686;16.584;2023-05-14T14:28:21;11.08;99.99
66576;SHT31;53428;47.686;16.584;2023-05-14T14:33:20;10.98;99.99
66576;SHT31;53428;47.686;16.584;2023-05-14T14:38:20;10.86;99.99
66576;SHT31;53428;47.686;16.584;2023-05-14T14:43:19;10.83;99.99
66576;SHT31;53428;47.686;16.584;2023-05-14T14:48:29;10.96;99.99
66576;SHT31;53428;47.686;16.584;2023-05-14T14:53:33;10.88;99.99
66576;SHT31;53428;47.686;16.584;2023-05-14T14:58:33;10.85;99.99
66576;SHT31;53428;47.686;16.584;2023-05-14T15:03:32;10.82;99.99
66576;SHT31;53428;47.686;16.584;2023-05-14T15:08:32;10.93;99.99
66576;SHT31;53428;47.686;16.584;2023-05-14T15:13:33;10.98;99.99
66576;SHT31;53428;47.686;16.584;2023-05-14T15:18:32;10.98;99.99
66576;SHT31;53428;47.686;16.584;2023-05-14T15:23:32;11.08;99.99
66576;SHT31;53428;47.686;16.584;2023-05-14T15:28:31;11.06;99.99
66576;SHT31;53428;47.686;16.584;2023-05-14T15:33:31;11.06;99.99
66576;SHT31;53428;47.686;16.584;2023-05-14T15:38:33;11.15;99.99
66576;SHT31;53428;47.686;16.584;2023-05-14T15:43:33;11.09;99.99
66576;SHT31;53428;47.686;16.584;2023-05-14T15:48:32;11.03;99.99
66576;SHT31;53428;47.686;16.584;2023-05-14T15:53:32;11.03;99.99
66576;SHT31;53428;47.686;16.584;2023-05-14T15:58:31;11.12;99.99
66576;SHT31;53428;47.686;16.584;2023-05-14T16:03:32;11.13;99.99
66576;SHT31;53428;47.686;16.584;2023-05-14T16:08:32;11.16;99.99
66576;SHT31;53428;47.686;16.584;2023-05-14T16:13:31;11.12;99.99
66576;SHT31;53428;47.686;16.584;2023-05-14T16:18:32;11.18;99.99
66576;SHT31;53428;47.686;16.584;2023-05-14T16:23:31;11.00;99.99
66576;SHT31;53428;47.686;16.584;2023-05-14T16:28:31;11.00;99.99
66576;SHT31;53428;47.686;16.584;2023-05-14T16:33:30;11.00;99.99
66576;SHT31;53428;47.686;16.584;2023-05-14T16:38:30;11.09;99.99
66576;SHT31;53428;47.686;16.584;2023-05-14T16:43:29;11.08;99.99
66576;SHT31;53428;47.686;16.584;2023-05-14T16:48:28;11.08;99.99
66576;SHT31;53428;47.686;16.584;2023-05-14T16:53:28;11.05;99.99
66576;SHT31;53428;47.686;16.584;2023-05-14T16:58:27;11.09;99.99
66576;SHT31;53428;47.686;16.584;2023-05-14T17:03:26;11.18;99.99
66576;SHT31;53428;47.686;16.584;2023-05-14T17:08:25;11.13;99.99
66576;SHT31;53428;47.686;16.584;2023-05-14T17:13:31;11.15;99.99
66576;SHT31;53428;47.686;16.584;2023-05-14T17:18:30;11.12;99.99
66576;SHT31;53428;47.686;16.584;2023-05-14T17:23:30;11.06;99.99
66576;SHT31;53428;47.686;16.584;2023-05-14T17:28:30;11.24;99.99
66576;SHT31;53428;47.686;16.584;2023-05-14T17:33:29;11.23;99.99
66576;SHT31;53428;47.686;16.584;2023-05-14T17:38:28;11.15;99.99
66576;SHT31;53428;47.686;16.584;2023-05-14T17:43:27;11.15;99.99
66576;SHT31;53428;47.686;16.584;2023-05-14T17:48:27;11.18;99.99
66576;SHT31;53428;47.686;16.584;2023-05-14T17:53:26;11.10;99.99
66576;SHT31;53428;47.686;16.584;2023-05-14T17:58:25;11.15;99.99
66576;SHT31;53428;47.686;16.584;2023-05-14T18:03:25;11.30;99.99
66576;SHT31;53428;47.686;16.584;2023-05-14T18:08:25;11.13;99.99
66576;SHT31;53428;47.686;16.584;2023-05-14T18:13:24;11.10;99.99
66576;SHT31;53428;47.686;16.584;2023-05-14T18:18:23;11.15;99.99
66576;SHT31;53428;47.686;16.584;2023-05-14T18:23:22;11.09;99.99
66576;SHT31;53428;47.686;16.584;2023-05-14T18:28:22;11.12;99.99
66576;SHT31;53428;47.686;16.584;2023-05-14T18:33:21;11.20;99.99
66576;SHT31;53428;47.686;16.584;2023-05-14T18:38:20;11.20;99.99
66576;SHT31;53428;47.686;16.584;2023-05-14T18:43:20;11.29;99.99
66576;SHT31;53428;47.686;16.584;2023-05-14T18:48:19;11.16;99.99
66576;SHT31;53428;47.686;16.584;2023-05-14T18:53:18;11.12;99.99
66576;SHT31;53428;47.686;16.584;2023-05-14T18:58:18;11.13;99.99
66576;SHT31;53428;47.686;16.584;2023-05-14T19:03:17;11.16;99.99
66576;SHT31;53428;47.686;16.584;2023-05-14T19:08:19;11.20;99.99
66576;SHT31;53428;47.686;16.584;2023-05-14T19:13:18;11.22;99.99
66576;SHT31;53428;47.686;16.584;2023-05-14T19:18:17;11.19;99.99
66576;SHT31;53428;47.686;16.584;2023-05-14T19:23:16;11.26;99.99
66576;SHT31;53428;47.686;16.584;2023-05-14T19:28:16;11.27;99.99
66576;SHT31;53428;47.686;16.584;2023-05-14T19:33:17;11.24;99.99
66576;SHT31;53428;47.686;16.584;2023-05-14T19:38:17;11.22;99.99
66576;SHT31;53428;47.686;16.584;2023-05-14T19:43:17;11.19;99.99
66576;SHT31;53428;47.686;16.584;2023-05-14T19:48:18;11.24;99.99
66576;SHT31;53428;47.686;16.584;2023-05-14T19:53:17;11.24;99.99
66576;SHT31;53428;47.686;16.584;2023-05-14T19:58:17;11.24;99.99
66576;SHT31;53428;47.686;16.584;2023-05-14T20:03:16;11.33;99.99
66576;SHT31;53428;47.686;16.584;2023-05-14T20:08:16;11.29;99.99
66576;SHT31;53428;47.686;16.584;2023-05-14T20:13:16;11.29;99.99
66576;SHT31;53428;47.686;16.584;2023-05-14T20:18:16;11.33;99.99
66576;SHT31;53428;47.686;16.584;2023-05-14T20:23:15;11.29;99.99
66576;SHT31;53428;47.686;16.584;2023-05-14T20:28:15;11.29;99.99
66576;SHT31;53428;47.686;16.584;2023-05-14T20:33:14;11.30;99.99
66576;SHT31;53428;47.686;16.584;2023-05-14T20:38:13;11.34;99.99
66576;SHT31;53428;47.686;16.584;2023-05-14T20:43:13;11.34;99.99
66576;SHT31;53428;47.686;16.584;2023-05-14T20:48:12;11.36;99.99
66576;SHT31;53428;47.686;16.584;2023-05-14T20:53:14;11.33;99.99
66576;SHT31;53428;47.686;16.584;2023-05-14T20:58:13;11.34;99.99
66576;SHT31;53428;47.686;16.584;2023-05-14T21:03:12;11.34;99.99
66576;SHT31;53428;47.686;16.584;2023-05-14T21:08:11;11.33;99.99
66576;SHT31;53428;47.686;16.584;2023-05-14T21:13:11;11.23;99.99
66576;SHT31;53428;47.686;16.584;2023-05-14T21:18:11;11.27;99.99
66576;SHT31;53428;47.686;16.584;2023-05-14T21:23:10;11.27;99.99
66576;SHT31;53428;47.686;16.584;2023-05-14T21:28:10;11.27;99.99
66576;SHT31;53428;47.686;16.584;2023-05-14T21:33:10;11.23;99.99
66576;SHT31;53428;47.686;16.584;2023-05-14T21:38:09;11.24;99.99
66576;SHT31;53428;47.686;16.584;2023-05-14T21:43:08;11.30;99.99
66576;SHT31;53428;47.686;16.584;2023-05-14T21:48:09;11.30;99.99
66576;SHT31;53428;47.686;16.584;2023-05-14T21:53:09;11.30;99.99
66576;SHT31;53428;47.686;16.584;2023-05-14T21:58:08;11.33;99.99
66576;SHT31;53428;47.686;16.584;2023-05-14T22:03:07;11.43;99.99
66576;SHT31;53428;47.686;16.584;2023-05-14T22:08:06;11.39;99.99
66576;SHT31;53428;47.686;16.584;2023-05-14T22:13:06;11.33;99.99
66576;SHT31;53428;47.686;16.584;2023-05-14T22:18:05;11.34;99.99
66576;SHT31;53428;47.686;16.584;2023-05-14T22:23:05;11.46;99.99
66576;SHT31;53428;47.686;16.584;2023-05-14T22:28:04;11.44;99.99
66576;SHT31;53428;47.686;16.584;2023-05-14T22:33:03;11.46;99.99
66576;SHT31;53428;47.686;16.584;2023-05-14T22:38:02;11.39;99.99
66576;SHT31;53428;47.686;16.584;2023-05-14T22:43:01;11.33;99.99
66576;SHT31;53428;47.686;16.584;2023-05-14T22:48:01;11.29;99.99
66576;SHT31;53428;47.686;16.584;2023-05-14T22:53:00;11.23;99.99
66576;SHT31;53428;47.686;16.584;2023-05-14T22:57:59;11.22;99.99
66576;SHT31;53428;47.686;16.584;2023-05-14T23:02:58;11.24;99.99
66576;SHT31;53428;47.686;16.584;2023-05-14T23:07:57;11.22;99.99
66576;SHT31;53428;47.686;16.584;2023-05-14T23:12:57;11.24;99.99
66576;SHT31;53428;47.686;16.584;2023-05-14T23:17:56;11.27;99.99
66576;SHT31;53428;47.686;16.584;2023-05-14T23:22:55;11.33;99.99
66576;SHT31;53428;47.686;16.584;2023-05-14T23:27:55;11.36;99.99
66576;SHT31;53428;47.686;16.584;2023-05-14T23:32:54;11.30;99.99
66576;SHT31;53428;47.686;16.584;2023-05-14T23:37:53;11.31;99.99
66576;SHT31;53428;47.686;16.584;2023-05-14T23:42:53;11.30;99.99
66576;SHT31;53428;47.686;16.584;2023-05-14T23:47:53;11.29;99.99
66576;SHT31;53428;47.686;16.584;2023-05-14T23:52:53;11.22;99.99
66576;SHT31;53428;47.686;16.584;2023-05-14T23:57:53;11.20;99.99
